Time;durP1;ratioP1;P1;durP2;ratioP2;P2;SDS_P1;SDS_P2;PMS_P1;PMS_P2;Temp;Humidity;BMP_temperature;BMP_pressure;BME280_temperature;BME280_humidity;BME280_pressure;Samples;Min_cycle;Max_cycle;Signal;HPM_P1;HPM_P2
2023/06/16 00:01:09;;;;;;;24.87;23.60;;;15.70;99.90;;;;;;5045856;28;20574;-86
2023/06/16 00:03:35;;;;;;;24.77;23.53;;;15.60;99.90;;;;;;5042768;28;20217;-86
2023/06/16 00:06:14;;;;;;;24.37;23.23;;;15.70;99.90;;;;;;5059072;28;20893;-86
2023/06/16 00:08:44;;;;;;;25.63;24.43;;;15.60;99.90;;;;;;5063111;28;20350;-84
2023/06/16 00:11:15;;;;;;;24.13;23.03;;;15.50;99.90;;;;;;5056870;28;20201;-86
2023/06/16 00:13:41;;;;;;;27.10;25.87;;;15.40;99.90;;;;;;5060627;28;20216;-86
2023/06/16 00:16:06;;;;;;;26.53;25.07;;;15.40;99.90;;;;;;5062552;28;20218;-87
2023/06/16 00:18:32;;;;;;;25.67;24.47;;;15.40;99.90;;;;;;5042504;28;20277;-87
2023/06/16 00:21:01;;;;;;;27.87;26.57;;;15.40;99.90;;;;;;5044188;28;20707;-85
2023/06/16 00:23:28;;;;;;;27.87;26.57;;;15.30;99.90;;;;;;5043905;28;20317;-87
2023/06/16 00:25:53;;;;;;;32.97;31.47;;;15.20;99.90;;;;;;5041351;28;20186;-87
2023/06/16 00:28:20;;;;;;;29.27;27.87;;;15.20;99.90;;;;;;5042664;28;20319;-87
2023/06/16 00:30:46;;;;;;;30.30;28.97;;;15.10;99.90;;;;;;5041593;28;20245;-88
2023/06/16 00:33:15;;;;;;;33.80;32.23;;;15.00;99.90;;;;;;5024817;28;20229;-87
2023/06/16 00:35:43;;;;;;;34.70;33.13;;;15.00;99.90;;;;;;5057059;28;20779;-86
2023/06/16 00:38:08;;;;;;;38.73;36.93;;;15.00;99.90;;;;;;5060332;28;20537;-86
2023/06/16 00:40:34;;;;;;;34.40;32.57;;;15.00;99.90;;;;;;5049232;28;20216;-89
2023/06/16 00:43:02;;;;;;;38.23;36.63;;;15.00;99.90;;;;;;5056905;28;20265;-90
2023/06/16 00:45:29;;;;;;;38.13;36.30;;;14.90;99.90;;;;;;5042394;28;20229;-87
2023/06/16 00:47:55;;;;;;;42.83;41.03;;;14.90;99.90;;;;;;5056484;28;20218;-86
2023/06/16 00:50:23;;;;;;;40.43;38.30;;;14.90;99.90;;;;;;5058803;28;20193;-90
2023/06/16 00:52:50;;;;;;;41.03;39.43;;;14.80;99.90;;;;;;5041144;28;20196;-88
2023/06/16 00:55:16;;;;;;;45.00;43.10;;;14.90;99.90;;;;;;5039524;28;20220;-87
2023/06/16 00:57:42;;;;;;;43.60;41.50;;;14.90;99.90;;;;;;5054610;28;20222;-88
2023/06/16 01:00:11;;;;;;;44.97;42.47;;;14.90;99.90;;;;;;5038047;28;20317;-86
2023/06/16 01:02:38;;;;;;;44.87;42.80;;;14.90;99.90;;;;;;5044763;28;20677;-87
2023/06/16 01:05:07;;;;;;;49.80;47.63;;;14.90;99.90;;;;;;5039461;28;20219;-89
2023/06/16 01:07:41;;;;;;;51.50;49.30;;;14.90;99.90;;;;;;5038493;28;20566;-91
2023/06/16 01:10:36;;;;;;;55.53;53.13;;;14.90;99.90;;;;;;5036964;28;20256;-88
2023/06/16 01:13:13;;;;;;;47.07;45.13;;;14.90;99.90;;;;;;5015557;28;20246;-86
2023/06/16 01:15:43;;;;;;;56.33;53.83;;;14.80;99.90;;;;;;5040035;28;20700;-88
2023/06/16 01:18:10;;;;;;;52.77;50.73;;;14.80;99.90;;;;;;5058043;28;20214;-89
2023/06/16 01:21:12;;;;;;;57.43;55.03;;;14.80;99.90;;;;;;5037945;28;20226;-87
2023/06/16 01:24:02;;;;;;;52.60;50.17;;;14.70;99.90;;;;;;5057243;28;20710;-89
2023/06/16 01:26:31;;;;;;;54.67;52.40;;;14.50;99.90;;;;;;5039295;28;20225;-86
2023/06/16 01:29:01;;;;;;;56.27;54.03;;;14.40;99.90;;;;;;5056222;28;20193;-89
2023/06/16 01:31:31;;;;;;;63.13;60.43;;;14.40;99.90;;;;;;5039852;28;20239;-86
2023/06/16 01:34:00;;;;;;;69.10;66.37;;;14.40;99.90;;;;;;5057814;28;20309;-88
2023/06/16 01:36:30;;;;;;;71.23;68.23;;;14.40;99.90;;;;;;5039642;28;20717;-88
2023/06/16 01:38:57;;;;;;;74.17;71.13;;;14.40;99.90;;;;;;5037024;28;20213;-88
2023/06/16 01:41:22;;;;;;;76.87;73.77;;;14.50;99.90;;;;;;5040213;28;20213;-89
2023/06/16 01:43:48;;;;;;;74.83;71.43;;;14.50;99.90;;;;;;5040237;28;20569;-88
2023/06/16 01:46:15;;;;;;;81.03;78.03;;;14.40;99.90;;;;;;5047967;28;20221;-87
2023/06/16 01:48:40;;;;;;;88.67;85.50;;;14.40;99.90;;;;;;5058288;28;20342;-90
2023/06/16 01:51:06;;;;;;;86.23;83.03;;;14.40;99.90;;;;;;5056916;28;20249;-85
2023/06/16 01:53:32;;;;;;;90.70;87.37;;;14.40;99.90;;;;;;5054145;28;20278;-88
2023/06/16 01:55:58;;;;;;;89.37;85.73;;;14.40;99.90;;;;;;5036947;28;20492;-86
2023/06/16 01:58:25;;;;;;;81.90;78.80;;;14.40;99.90;;;;;;5038588;28;20768;-86
2023/06/16 02:00:57;;;;;;;86.30;83.17;;;14.40;99.90;;;;;;5036903;28;20291;-87
2023/06/16 02:03:35;;;;;;;102.43;98.73;;;14.40;99.90;;;;;;5054016;28;20741;-87
2023/06/16 02:06:06;;;;;;;93.67;90.20;;;14.40;99.90;;;;;;5054575;28;20218;-86
2023/06/16 02:08:35;;;;;;;103.50;99.43;;;14.40;99.90;;;;;;5038073;28;20214;-88
2023/06/16 02:11:01;;;;;;;102.80;98.73;;;14.40;99.90;;;;;;5039928;28;20242;-87
2023/06/16 02:13:28;;;;;;;120.80;116.30;;;14.40;99.90;;;;;;5037704;28;20318;-86
2023/06/16 02:15:55;;;;;;;120.23;115.93;;;14.40;99.90;;;;;;5054839;28;20217;-86
2023/06/16 02:18:27;;;;;;;120.57;116.40;;;14.30;99.90;;;;;;5039442;28;20658;-87
2023/06/16 02:20:55;;;;;;;129.13;124.03;;;14.40;99.90;;;;;;5052939;28;20237;-84
2023/06/16 02:23:21;;;;;;;130.20;125.30;;;14.50;99.90;;;;;;5036010;28;20218;-86
2023/06/16 02:25:46;;;;;;;124.20;119.70;;;14.50;99.90;;;;;;5055752;28;20308;-85
2023/06/16 02:28:12;;;;;;;121.20;116.80;;;14.40;99.90;;;;;;5020461;28;20218;-85
2023/06/16 02:30:38;;;;;;;150.20;144.50;;;14.20;99.90;;;;;;5056006;28;20226;-85
2023/06/16 02:33:04;;;;;;;151.70;146.10;;;14.30;99.90;;;;;;5035537;28;20224;-88
2023/06/16 02:35:30;;;;;;;161.93;156.33;;;14.30;99.90;;;;;;5038888;28;20744;-86
2023/06/16 02:37:56;;;;;;;164.73;158.90;;;14.30;99.90;;;;;;5038242;28;20189;-86
2023/06/16 02:40:22;;;;;;;173.63;167.17;;;14.30;99.90;;;;;;5055190;28;20214;-86
2023/06/16 02:42:48;;;;;;;175.70;169.37;;;14.30;99.90;;;;;;5054559;28;20403;-86
2023/06/16 02:45:14;;;;;;;175.23;169.10;;;14.30;99.90;;;;;;5035016;28;20289;-85
2023/06/16 02:47:41;;;;;;;191.80;185.20;;;14.30;99.90;;;;;;5057340;28;20275;-85
2023/06/16 02:50:08;;;;;;;194.43;187.47;;;14.20;99.90;;;;;;5044861;28;20239;-86
2023/06/16 02:52:34;;;;;;;198.60;191.73;;;14.20;99.90;;;;;;5054950;28;20193;-85
2023/06/16 02:55:00;;;;;;;214.87;207.67;;;14.30;99.90;;;;;;5056330;28;20260;-86
2023/06/16 02:57:26;;;;;;;204.77;197.20;;;14.30;99.90;;;;;;5055201;28;20230;-86
2023/06/16 02:59:52;;;;;;;228.73;221.20;;;14.40;99.90;;;;;;5038566;28;20213;-86
2023/06/16 03:02:17;;;;;;;215.97;208.27;;;14.40;99.90;;;;;;5036250;28;20300;-85
2023/06/16 03:04:43;;;;;;;226.00;218.60;;;14.40;99.90;;;;;;5039964;28;20255;-92
2023/06/16 03:07:10;;;;;;;235.13;227.67;;;14.30;99.90;;;;;;5021038;28;20232;-86
2023/06/16 03:09:36;;;;;;;250.93;242.77;;;14.30;99.90;;;;;;5054914;28;20222;-90
2023/06/16 03:12:02;;;;;;;243.83;235.83;;;14.30;99.90;;;;;;5020859;28;20228;-86
2023/06/16 03:14:28;;;;;;;264.03;254.87;;;14.40;99.90;;;;;;5055739;28;20308;-87
2023/06/16 03:16:55;;;;;;;254.20;245.63;;;14.40;99.90;;;;;;5022982;28;20969;-87
2023/06/16 03:19:21;;;;;;;262.93;254.27;;;14.50;99.90;;;;;;5037210;28;20597;-86
2023/06/16 03:21:50;;;;;;;259.37;250.90;;;14.50;99.90;;;;;;5054647;28;20232;-87
2023/06/16 03:24:18;;;;;;;262.53;253.57;;;14.50;99.90;;;;;;5037040;28;20290;-91
2023/06/16 03:26:45;;;;;;;261.40;252.97;;;14.50;99.90;;;;;;5033801;28;20240;-87
2023/06/16 03:29:14;;;;;;;270.10;261.23;;;14.50;99.90;;;;;;5035294;28;20230;-86
2023/06/16 03:31:41;;;;;;;261.20;252.67;;;14.50;99.90;;;;;;5022022;28;20263;-85
2023/06/16 03:34:07;;;;;;;273.50;264.03;;;14.50;99.90;;;;;;5055091;28;20305;-87
2023/06/16 03:36:36;;;;;;;258.83;250.47;;;14.50;99.90;;;;;;5044740;28;20997;-89
2023/06/16 03:39:05;;;;;;;267.30;258.70;;;14.40;99.90;;;;;;5022801;28;20217;-93
2023/06/16 03:41:35;;;;;;;254.90;246.53;;;14.30;99.90;;;;;;5036947;28;20438;-87
2023/06/16 03:44:03;;;;;;;257.60;249.63;;;14.30;99.90;;;;;;5036405;28;20192;-87
2023/06/16 03:46:31;;;;;;;238.93;230.87;;;14.30;99.90;;;;;;5051810;28;20729;-85
2023/06/16 03:48:57;;;;;;;245.10;236.90;;;14.40;99.90;;;;;;5034044;28;20274;-85
2023/06/16 03:51:24;;;;;;;240.07;231.43;;;14.50;99.90;;;;;;5033786;28;20679;-85
2023/06/16 03:53:51;;;;;;;240.70;232.73;;;14.50;99.90;;;;;;5050377;28;20213;-85
2023/06/16 03:56:18;;;;;;;248.40;239.63;;;14.60;99.90;;;;;;5052749;28;20679;-87
2023/06/16 03:58:43;;;;;;;239.73;231.63;;;14.60;99.90;;;;;;5055444;28;20284;-84
2023/06/16 04:01:09;;;;;;;228.77;220.60;;;14.70;99.90;;;;;;5035828;28;20379;-87
2023/06/16 04:03:35;;;;;;;221.37;213.60;;;14.80;99.90;;;;;;5055216;28;20217;-86
2023/06/16 04:06:02;;;;;;;220.37;212.80;;;14.80;99.90;;;;;;5036539;28;20671;-87
2023/06/16 04:08:28;;;;;;;214.60;207.60;;;14.90;99.90;;;;;;5038583;28;20702;-87
2023/06/16 04:10:57;;;;;;;202.40;195.70;;;15.00;99.90;;;;;;5037875;28;20213;-85
2023/06/16 04:13:32;;;;;;;194.70;187.77;;;15.00;99.90;;;;;;5037762;28;20225;-86
2023/06/16 04:15:58;;;;;;;172.87;166.83;;;15.00;99.90;;;;;;5036061;28;20327;-91
2023/06/16 04:18:24;;;;;;;157.03;151.43;;;15.00;99.90;;;;;;5038256;28;20227;-85
2023/06/16 04:20:49;;;;;;;141.83;136.53;;;15.00;99.90;;;;;;5040059;28;20230;-87
2023/06/16 04:23:15;;;;;;;126.97;122.00;;;15.10;99.90;;;;;;5039838;28;20190;-86
2023/06/16 04:25:42;;;;;;;110.77;106.10;;;15.30;99.90;;;;;;5023374;28;20247;-86
2023/06/16 04:28:13;;;;;;;101.87;97.37;;;15.40;99.90;;;;;;5041498;28;20221;-87
2023/06/16 04:30:40;;;;;;;84.33;80.73;;;15.50;99.90;;;;;;5025523;28;20213;-86
2023/06/16 04:33:06;;;;;;;88.20;84.70;;;15.50;99.90;;;;;;5059757;28;20678;-89
2023/06/16 04:35:33;;;;;;;82.97;79.13;;;15.60;99.90;;;;;;5049572;28;20213;-86
2023/06/16 04:37:59;;;;;;;78.13;74.33;;;15.70;99.90;;;;;;5055454;28;20635;-88
2023/06/16 04:40:26;;;;;;;65.10;61.57;;;15.70;99.90;;;;;;5056444;28;20253;-89
2023/06/16 04:42:52;;;;;;;70.00;66.30;;;15.80;99.90;;;;;;5057942;28;20313;-91
2023/06/16 04:45:19;;;;;;;52.53;49.83;;;15.80;99.90;;;;;;5039462;28;20300;-88
2023/06/16 04:47:46;;;;;;;52.13;49.40;;;15.90;99.90;;;;;;5023613;28;20621;-87
2023/06/16 04:50:14;;;;;;;47.73;45.10;;;16.10;99.90;;;;;;5040251;28;20197;-88
2023/06/16 04:52:41;;;;;;;49.10;46.43;;;16.20;99.90;;;;;;5041581;28;20178;-85
2023/06/16 04:55:07;;;;;;;44.40;42.30;;;16.30;99.90;;;;;;5039077;28;20212;-88
2023/06/16 04:57:34;;;;;;;46.33;43.87;;;16.40;99.90;;;;;;5022781;28;20673;-88
2023/06/16 05:00:03;;;;;;;45.73;43.33;;;16.40;99.90;;;;;;5057814;28;20271;-85
2023/06/16 05:02:29;;;;;;;45.83;43.77;;;16.50;99.90;;;;;;5049388;28;20238;-85
2023/06/16 05:04:56;;;;;;;47.73;45.30;;;16.60;99.90;;;;;;5048105;28;20546;-86
2023/06/16 05:07:22;;;;;;;51.80;49.27;;;16.70;99.90;;;;;;5042323;28;20225;-86
2023/06/16 05:09:47;;;;;;;65.63;62.63;;;16.90;99.90;;;;;;5039763;28;20213;-86
2023/06/16 05:12:13;;;;;;;87.70;83.93;;;17.10;99.90;;;;;;5024859;28;20231;-89
2023/06/16 05:14:39;;;;;;;92.30;88.37;;;17.30;99.90;;;;;;5042052;28;20577;-86
2023/06/16 05:17:05;;;;;;;105.27;101.37;;;18.40;99.90;;;;;;5048567;28;20190;-86
2023/06/16 05:19:32;;;;;;;129.93;125.23;;;20.10;99.90;;;;;;5030478;28;20294;-85
2023/06/16 05:21:58;;;;;;;77.20;74.03;;;21.70;99.90;;;;;;5056061;28;20772;-86
2023/06/16 05:24:24;;;;;;;78.07;75.10;;;22.30;99.90;;;;;;5036226;28;20237;-87
2023/06/16 05:26:51;;;;;;;61.47;58.73;;;20.90;99.90;;;;;;5039784;28;20216;-87
2023/06/16 05:29:17;;;;;;;50.67;48.57;;;20.80;99.90;;;;;;5039809;28;20196;-85
2023/06/16 05:31:43;;;;;;;60.33;58.03;;;21.60;99.90;;;;;;5038815;28;20876;-90
2023/06/16 05:34:09;;;;;;;81.80;78.53;;;22.10;99.90;;;;;;5058284;28;20239;-86
2023/06/16 05:36:35;;;;;;;83.23;79.83;;;22.80;99.90;;;;;;5056656;28;20333;-87
2023/06/16 05:39:11;;;;;;;134.37;129.93;;;23.70;99.90;;;;;;5041834;28;20217;-85
2023/06/16 05:41:37;;;;;;;137.10;132.57;;;24.60;99.90;;;;;;5038766;28;20236;-84
2023/06/16 05:44:03;;;;;;;185.70;180.00;;;24.20;99.90;;;;;;5024753;28;20189;-86
2023/06/16 05:46:29;;;;;;;215.60;208.90;;;23.30;99.90;;;;;;5005412;28;20243;-87
2023/06/16 05:48:57;;;;;;;204.13;197.83;;;23.00;99.90;;;;;;5022093;28;20209;-87
2023/06/16 05:51:24;;;;;;;166.73;161.23;;;22.90;99.90;;;;;;5031649;28;20222;-91
2023/06/16 05:53:50;;;;;;;163.52;158.50;;;23.00;99.90;;;;;;5039394;28;20231;-89
2023/06/16 05:56:16;;;;;;;138.63;134.10;;;23.10;99.90;;;;;;5056034;28;20185;-90
2023/06/16 05:58:42;;;;;;;44.03;42.13;;;23.30;99.90;;;;;;5025335;28;20196;-86
2023/06/16 06:01:09;;;;;;;42.53;40.78;;;23.50;99.90;;;;;;5054502;28;20252;-89
2023/06/16 06:03:35;;;;;;;45.30;43.30;;;23.80;99.90;;;;;;5037872;28;20209;-87
2023/06/16 06:06:01;;;;;;;49.97;47.60;;;23.90;99.90;;;;;;5054955;28;20263;-88
2023/06/16 06:08:28;;;;;;;49.15;47.20;;;24.00;99.90;;;;;;5037713;28;20224;-88
2023/06/16 06:11:01;;;;;;;52.15;50.10;;;24.70;99.90;;;;;;5054585;28;20224;-87
2023/06/16 06:13:27;;;;;;;63.15;60.22;;;24.80;99.90;;;;;;5040880;28;20233;-87
2023/06/16 06:15:52;;;;;;;63.40;61.08;;;25.00;99.90;;;;;;5054923;28;20362;-86
2023/06/16 06:18:18;;;;;;;60.15;57.65;;;24.50;99.90;;;;;;5038462;28;20283;-87
2023/06/16 06:20:47;;;;;;;66.85;64.07;;;23.70;99.90;;;;;;5038640;28;20240;-90
2023/06/16 06:23:13;;;;;;;70.88;67.95;;;23.70;99.90;;;;;;5019710;28;20195;-89
2023/06/16 06:25:42;;;;;;;75.10;72.25;;;23.10;99.90;;;;;;5017467;28;20232;-87
2023/06/16 06:28:08;;;;;;;71.63;69.00;;;22.90;99.90;;;;;;5037237;28;20272;-89
2023/06/16 06:30:35;;;;;;;69.28;66.80;;;23.50;99.90;;;;;;5054836;28;20586;-90
2023/06/16 06:33:01;;;;;;;82.68;79.63;;;22.80;99.90;;;;;;5001622;28;20210;-87
2023/06/16 06:35:27;;;;;;;83.20;80.13;;;23.40;99.90;;;;;;5035516;28;20585;-87
2023/06/16 06:37:53;;;;;;;84.50;81.40;;;23.90;99.90;;;;;;5021771;28;20248;-89
2023/06/16 06:40:18;;;;;;;95.63;92.30;;;23.20;99.90;;;;;;5039727;28;20232;-86
2023/06/16 06:42:44;;;;;;;86.47;83.32;;;24.20;99.90;;;;;;5038444;28;20889;-86
2023/06/16 06:45:11;;;;;;;83.68;80.78;;;23.90;99.90;;;;;;5039183;28;20659;-87
2023/06/16 06:47:37;;;;;;;94.47;91.18;;;22.90;99.90;;;;;;5037869;28;20363;-87
2023/06/16 06:50:04;;;;;;;97.82;94.18;;;23.00;99.90;;;;;;5055049;28;20190;-86
2023/06/16 06:52:29;;;;;;;92.45;89.32;;;23.30;99.90;;;;;;5039532;28;20225;-88
2023/06/16 06:54:56;;;;;;;91.70;88.57;;;23.30;99.90;;;;;;5028466;28;20652;-86
2023/06/16 06:57:22;;;;;;;100.15;96.78;;;23.40;99.90;;;;;;5045649;28;20319;-88
2023/06/16 06:59:48;;;;;;;94.57;91.45;;;24.10;99.90;;;;;;5039969;28;20918;-92
2023/06/16 07:02:16;;;;;;;89.00;86.03;;;23.80;99.90;;;;;;5037191;28;20289;-87
2023/06/16 07:04:42;;;;;;;86.85;83.93;;;23.60;99.90;;;;;;5023235;28;20236;-87
2023/06/16 07:07:08;;;;;;;85.72;82.82;;;23.90;99.90;;;;;;5037309;28;20637;-88
2023/06/16 07:09:34;;;;;;;89.30;86.15;;;23.90;99.90;;;;;;5022843;28;20586;-90
2023/06/16 07:12:01;;;;;;;89.25;86.20;;;23.60;99.90;;;;;;5036796;28;20698;-89
2023/06/16 07:14:29;;;;;;;82.95;80.03;;;23.10;99.90;;;;;;5054221;28;20244;-91
2023/06/16 07:16:55;;;;;;;84.07;81.20;;;23.10;99.90;;;;;;5055374;28;20186;-90
2023/06/16 07:19:23;;;;;;;81.97;79.10;;;22.90;99.90;;;;;;5054148;28;20304;-91
2023/06/16 07:21:49;;;;;;;83.20;80.43;;;22.70;99.90;;;;;;5051157;28;20352;-89
2023/06/16 07:24:15;;;;;;;79.90;77.20;;;22.90;99.90;;;;;;5031730;28;20213;-89
2023/06/16 07:26:42;;;;;;;79.20;76.40;;;22.80;99.90;;;;;;5048892;28;21015;-89
2023/06/16 07:29:08;;;;;;;92.43;88.95;;;22.90;99.90;;;;;;5031243;28;20190;-85
2023/06/16 07:31:34;;;;;;;89.25;86.15;;;22.60;99.90;;;;;;5051999;28;20173;-88
2023/06/16 07:33:59;;;;;;;81.05;78.15;;;23.00;99.90;;;;;;5016402;28;20726;-90
2023/06/16 07:36:25;;;;;;;82.78;79.85;;;23.60;99.90;;;;;;5016893;28;20566;-88
2023/06/16 07:38:51;;;;;;;73.72;71.22;;;23.10;99.90;;;;;;5032200;28;20224;-89
2023/06/16 07:41:17;;;;;;;79.53;76.72;;;23.60;99.90;;;;;;5018975;28;20206;-86
2023/06/16 07:43:43;;;;;;;73.90;71.30;;;23.80;99.90;;;;;;5054246;28;20208;-87
2023/06/16 07:46:08;;;;;;;68.15;65.57;;;23.30;99.90;;;;;;5049376;28;20224;-87
2023/06/16 07:48:34;;;;;;;77.18;74.68;;;23.30;99.90;;;;;;5051171;28;20217;-87
2023/06/16 07:51:00;;;;;;;64.10;62.00;;;23.80;99.90;;;;;;5033754;28;20220;-90
2023/06/16 07:53:26;;;;;;;65.15;62.60;;;25.10;99.90;;;;;;5034376;28;20645;-88
2023/06/16 07:55:52;;;;;;;68.32;65.72;;;24.70;99.90;;;;;;5039105;28;20181;-91
2023/06/16 07:58:19;;;;;;;72.15;69.75;;;24.80;99.90;;;;;;5038742;28;20679;-90
2023/06/16 08:00:46;;;;;;;62.88;60.75;;;24.70;99.90;;;;;;5023810;28;20249;-86
2023/06/16 08:03:11;;;;;;;61.35;59.30;;;24.20;99.90;;;;;;5008610;28;20225;-89
2023/06/16 08:05:37;;;;;;;78.53;75.97;;;24.70;99.90;;;;;;5041037;28;20213;-87
2023/06/16 08:08:03;;;;;;;77.88;75.18;;;24.20;99.90;;;;;;5026709;28;20760;-87
2023/06/16 08:10:29;;;;;;;84.78;82.03;;;24.70;99.90;;;;;;5059153;28;20942;-87
2023/06/16 08:12:54;;;;;;;79.25;76.70;;;24.60;99.90;;;;;;5040620;28;20217;-87
2023/06/16 08:15:20;;;;;;;85.20;82.43;;;24.90;99.90;;;;;;5041062;28;20229;-86
2023/06/16 08:17:46;;;;;;;92.53;89.43;;;25.20;99.90;;;;;;5040275;28;20332;-87
2023/06/16 08:20:12;;;;;;;89.47;86.45;;;24.50;99.90;;;;;;5024118;28;20212;-88
2023/06/16 08:22:37;;;;;;;107.88;104.63;;;24.50;99.90;;;;;;5058091;28;20677;-87
2023/06/16 08:25:05;;;;;;;104.72;101.32;;;24.30;99.90;;;;;;5005283;28;20630;-88
2023/06/16 08:27:30;;;;;;;104.18;101.00;;;24.10;99.90;;;;;;5058204;28;20729;-87
2023/06/16 08:29:57;;;;;;;100.65;97.57;;;24.20;99.90;;;;;;5022483;28;20220;-89
2023/06/16 08:32:22;;;;;;;108.15;104.80;;;24.20;99.90;;;;;;5036454;28;20281;-88
2023/06/16 08:34:51;;;;;;;121.93;118.20;;;23.50;99.90;;;;;;5021223;28;20635;-87
2023/06/16 08:37:17;;;;;;;130.82;126.63;;;22.90;99.90;;;;;;5023618;28;20210;-89
2023/06/16 08:39:43;;;;;;;100.70;97.50;;;22.70;99.90;;;;;;5005797;28;20213;-88
2023/06/16 08:42:12;;;;;;;104.63;101.38;;;23.30;99.90;;;;;;5053589;28;20311;-88
2023/06/16 08:44:43;;;;;;;115.32;111.82;;;24.60;99.90;;;;;;5036758;28;20217;-86
2023/06/16 08:47:09;;;;;;;117.03;113.47;;;24.20;99.90;;;;;;5053649;28;20189;-87
2023/06/16 08:49:35;;;;;;;113.18;109.65;;;24.20;99.90;;;;;;5036882;28;20446;-87
2023/06/16 08:52:08;;;;;;;126.82;122.80;;;24.20;99.90;;;;;;5022679;28;20212;-90
2023/06/16 08:54:47;;;;;;;113.32;109.63;;;24.00;99.90;;;;;;5054656;28;20718;-90
2023/06/16 08:57:15;;;;;;;136.85;132.73;;;25.00;99.90;;;;;;5036360;28;20228;-89
2023/06/16 08:59:45;;;;;;;141.27;136.95;;;25.10;99.90;;;;;;5052799;28;20225;-87
2023/06/16 09:02:11;;;;;;;136.77;132.48;;;24.60;99.90;;;;;;5054731;28;20217;-88
2023/06/16 09:04:37;;;;;;;124.35;120.55;;;24.40;99.90;;;;;;5035748;28;20186;-88
2023/06/16 09:07:03;;;;;;;139.07;134.77;;;24.90;99.90;;;;;;5034988;28;20216;-87
2023/06/16 09:09:29;;;;;;;142.70;138.40;;;24.30;99.90;;;;;;5019195;28;20218;-88
2023/06/16 09:12:05;;;;;;;134.07;129.77;;;24.20;99.90;;;;;;5020531;28;20236;-87
2023/06/16 09:14:31;;;;;;;140.50;136.25;;;24.80;99.90;;;;;;5054102;28;20313;-86
2023/06/16 09:17:01;;;;;;;125.82;121.82;;;24.90;99.90;;;;;;5046701;28;20658;-88
2023/06/16 09:19:27;;;;;;;131.02;126.82;;;24.90;99.90;;;;;;5020107;28;20826;-86
2023/06/16 09:21:56;;;;;;;134.23;130.15;;;25.20;99.90;;;;;;5038723;28;20233;-85
2023/06/16 09:24:27;;;;;;;126.53;122.63;;;25.40;99.90;;;;;;5052686;28;20662;-86
2023/06/16 09:26:59;;;;;;;114.15;110.60;;;25.20;99.90;;;;;;5053636;28;20653;-86
2023/06/16 09:29:27;;;;;;;124.30;120.35;;;25.50;99.90;;;;;;5048028;28;20306;-87
2023/06/16 09:31:53;;;;;;;133.48;129.32;;;25.20;99.90;;;;;;5051372;28;20957;-90
2023/06/16 09:34:20;;;;;;;127.57;123.47;;;24.90;99.90;;;;;;5036075;28;20284;-84
2023/06/16 09:36:46;;;;;;;143.57;139.18;;;24.40;99.90;;;;;;5033907;28;20241;-86
2023/06/16 09:39:24;;;;;;;139.98;135.63;;;23.80;99.90;;;;;;5018690;28;20226;-87
2023/06/16 09:41:50;;;;;;;128.85;124.85;;;23.60;99.90;;;;;;5034506;28;20774;-89
2023/06/16 09:44:16;;;;;;;129.25;125.35;;;24.00;99.90;;;;;;5037626;28;20194;-86
2023/06/16 09:46:43;;;;;;;121.38;117.68;;;24.10;99.90;;;;;;5049907;28;20862;-86
2023/06/16 09:49:22;;;;;;;114.55;111.03;;;24.50;99.90;;;;;;5028623;28;20289;-88
2023/06/16 09:51:53;;;;;;;126.28;122.35;;;25.20;99.90;;;;;;5035612;28;20282;-88
2023/06/16 09:54:20;;;;;;;126.97;123.10;;;24.70;99.90;;;;;;5018351;28;20444;-87
2023/06/16 09:56:46;;;;;;;127.93;124.05;;;24.50;99.90;;;;;;5018047;28;20226;-87
2023/06/16 09:59:12;;;;;;;125.85;121.82;;;24.50;99.90;;;;;;5034687;28;20598;-85
2023/06/16 10:01:40;;;;;;;129.35;125.40;;;24.50;99.90;;;;;;5046593;28;20245;-89
2023/06/16 10:04:10;;;;;;;119.88;116.15;;;24.00;99.90;;;;;;5046790;28;20648;-89
2023/06/16 10:07:02;;;;;;;139.75;135.52;;;23.90;99.90;;;;;;5042482;28;20285;-83
2023/06/16 10:09:39;;;;;;;119.85;116.25;;;23.00;99.90;;;;;;5041085;28;20259;-85
2023/06/16 10:12:07;;;;;;;120.45;116.82;;;23.20;99.90;;;;;;5058399;28;20247;-87
2023/06/16 10:14:36;;;;;;;110.22;106.82;;;23.40;99.90;;;;;;5041904;28;20218;-84
2023/06/16 10:17:06;;;;;;;106.68;103.40;;;23.50;99.90;;;;;;5042530;28;20186;-85
2023/06/16 10:19:39;;;;;;;117.93;114.15;;;24.10;99.90;;;;;;5053184;28;20211;-84
2023/06/16 10:22:06;;;;;;;142.38;138.05;;;23.90;99.90;;;;;;5025033;28;20229;-87
2023/06/16 10:24:33;;;;;;;120.65;116.85;;;23.20;99.90;;;;;;5052813;28;20317;-87
2023/06/16 10:27:00;;;;;;;130.35;126.38;;;23.30;99.90;;;;;;5060664;28;20381;-87
2023/06/16 10:29:28;;;;;;;118.85;115.15;;;23.10;99.90;;;;;;5061507;28;20675;-85
2023/06/16 10:32:13;;;;;;;130.65;126.45;;;23.50;99.90;;;;;;5047604;28;20290;-87
2023/06/16 10:34:49;;;;;;;128.95;125.10;;;22.70;99.90;;;;;;5044778;28;20233;-83
2023/06/16 10:37:27;;;;;;;117.30;113.75;;;22.90;99.90;;;;;;5042109;28;20656;-83
2023/06/16 10:40:08;;;;;;;116.18;112.68;;;23.20;99.90;;;;;;5043189;28;20570;-85
2023/06/16 10:42:35;;;;;;;113.75;110.07;;;23.10;99.90;;;;;;5046331;28;20268;-82
2023/06/16 10:45:28;;;;;;;124.35;120.38;;;23.20;99.90;;;;;;5044619;28;20233;-85
2023/06/16 10:48:05;;;;;;;122.38;118.57;;;22.70;99.90;;;;;;5060750;28;20210;-84
2023/06/16 10:50:42;;;;;;;107.68;104.28;;;22.90;99.90;;;;;;5045547;28;20229;-82
2023/06/16 10:53:22;;;;;;;111.82;108.45;;;22.80;99.90;;;;;;5041792;28;20221;-80
2023/06/16 10:56:05;;;;;;;111.70;108.22;;;23.20;99.90;;;;;;5053590;28;20214;-82
2023/06/16 10:58:36;;;;;;;116.75;113.07;;;23.50;99.90;;;;;;5059272;28;20240;-87
2023/06/16 11:01:05;;;;;;;118.70;115.10;;;23.10;99.90;;;;;;5059284;28;20242;-86
2023/06/16 11:03:42;;;;;;;111.28;107.93;;;23.30;99.90;;;;;;5059811;28;20261;-86
2023/06/16 11:06:09;;;;;;;122.88;118.70;;;23.60;99.90;;;;;;5059172;28;20229;-86
2023/06/16 11:08:52;;;;;;;126.07;122.30;;;23.70;99.90;;;;;;5046551;28;20627;-85
2023/06/16 11:11:19;;;;;;;122.57;118.90;;;23.30;99.90;;;;;;5046077;28;20280;-84
2023/06/16 11:13:47;;;;;;;129.80;125.82;;;23.50;99.90;;;;;;5045619;28;20236;-86
2023/06/16 11:16:17;;;;;;;131.80;127.72;;;23.20;99.90;;;;;;5044158;28;20257;-84
2023/06/16 11:18:44;;;;;;;126.25;122.45;;;23.30;99.90;;;;;;5045271;28;20233;-86
2023/06/16 11:21:11;;;;;;;138.40;134.32;;;23.10;99.90;;;;;;5047663;28;20242;-84
2023/06/16 11:23:38;;;;;;;134.50;130.48;;;22.50;99.90;;;;;;5046672;28;20229;-84
2023/06/16 11:26:14;;;;;;;128.88;125.03;;;22.50;99.90;;;;;;5046421;28;20183;-86
2023/06/16 11:28:43;;;;;;;121.63;117.93;;;22.70;99.90;;;;;;5065417;28;20256;-84
2023/06/16 11:31:11;;;;;;;118.57;114.95;;;23.00;99.90;;;;;;5050386;28;20220;-86
2023/06/16 11:33:39;;;;;;;117.97;114.38;;;23.10;99.90;;;;;;5065287;28;20214;-86
2023/06/16 11:36:23;;;;;;;115.50;111.95;;;23.30;99.90;;;;;;5047027;28;20208;-83
2023/06/16 11:38:52;;;;;;;113.95;110.38;;;23.30;99.90;;;;;;5067002;28;20220;-86
2023/06/16 11:41:23;;;;;;;114.63;111.18;;;23.00;99.90;;;;;;5057969;28;20213;-85
2023/06/16 11:43:53;;;;;;;110.50;107.10;;;23.00;99.90;;;;;;5046804;28;20231;-84
2023/06/16 11:46:24;;;;;;;107.78;104.53;;;22.90;99.90;;;;;;5059955;28;20229;-85
2023/06/16 11:48:51;;;;;;;104.18;100.97;;;22.80;99.90;;;;;;5051663;28;20224;-84
2023/06/16 11:51:18;;;;;;;110.78;107.38;;;22.60;99.90;;;;;;5059620;28;20308;-84
2023/06/16 11:53:46;;;;;;;101.03;97.75;;;23.00;99.90;;;;;;5046161;28;20242;-86
2023/06/16 11:56:19;;;;;;;102.90;99.68;;;23.00;99.90;;;;;;5059732;28;20256;-83
2023/06/16 11:58:48;;;;;;;109.55;106.05;;;22.80;99.90;;;;;;5067204;28;20203;-83
2023/06/16 12:01:16;;;;;;;96.88;93.57;;;23.00;99.90;;;;;;5057967;28;20229;-83
2023/06/16 12:03:46;;;;;;;95.50;92.50;;;22.70;99.90;;;;;;5061296;28;20304;-83
2023/06/16 12:06:14;;;;;;;84.78;82.15;;;22.70;99.90;;;;;;5060203;28;20328;-86
2023/06/16 12:08:51;;;;;;;92.10;89.22;;;23.10;99.90;;;;;;5063244;28;20248;-83
2023/06/16 12:11:32;;;;;;;92.43;89.57;;;23.00;99.90;;;;;;5063153;28;20181;-85
2023/06/16 12:14:00;;;;;;;92.10;89.10;;;23.20;99.90;;;;;;5061864;28;20273;-83
2023/06/16 12:16:27;;;;;;;89.38;86.47;;;23.10;99.90;;;;;;5059857;28;20209;-84
2023/06/16 12:18:53;;;;;;;81.50;78.93;;;23.00;99.90;;;;;;5058633;28;20290;-86
2023/06/16 12:21:24;;;;;;;82.20;79.63;;;22.80;99.90;;;;;;5062467;28;20241;-87
2023/06/16 12:24:00;;;;;;;81.88;79.07;;;22.70;99.90;;;;;;5062680;28;20239;-82